Pagina principale
METAR-TAF:

METAR-TAF

Aeroporti :

Aeroporto di Shanghai-Pudong

Shanghai-Pudong, Cina

latitudine: 31-07N, longitudine: 121-46E, altezza: 4 m

Osservazione

Il bollettino è stato emesso 18 minuti fa, alle 23:30 UTC
Vento 14 kt da est/sud-est
Temperature 14°C
Umidità 88%
Pressione 1020 hPa
Visibilità: 7000 m
Poco nuvoloso ad un'altezza di 800 ft
Cielo coperto ad un'altezza di 3300 ft
pioggia debole

METAR: ZSPD 202330Z 11007MPS 7000 -RA FEW008 OVC033 14/12 Q1020 NOSIG

Ora: 07:48 (23:48 UTC)

Previsione

Il bollettino è stato emesso 2 ore e 28 minuti fa, alle 21:20 UTC
Previsione valida dal 21 alle 00 UTC al 21 alle 24 UTC
Vento 8 kt da est/sud-est
Visibilità: 6000 m
Nuvoloso ad un'altezza di 1100 ft
Evoluzione graduale
dal 21 alle 02 UTC al 21 alle 04 UTC
Vento 14 kt da nord/nord-ovest con raffiche fino a 25 kt

TAF: ZSPD 202120Z 2100/2124 11004MPS 6000 BKN011 TX16/2106Z TN09/2121Z BECMG 2102/2104 33007G13MPS

Osservazioni e previsioni meteorologiche di più di 4000 aeroporti (messaggi METAR e TAF).

Le stazioni disponibili sono rappresentate dai dischi gialli e rossi sulla carta.

Puntare il mouse per vedere il nome della stazione.

Clicca sopra per visualizzare le osservazioni e previsioni meteorologiche.

Per cambiare la mappa : fare clic sui pulsanti verdi con una croce nera per ingrandire, il pulsante verde con un trattino per diminuire, o sulla freccia verde per le mappe adiacenti.


METAR-TAF: